Time;durP1;ratioP1;P1;durP2;ratioP2;P2;SDS_P1;SDS_P2;PMS_P1;PMS_P2;Temp;Humidity;BMP_temperature;BMP_pressure;BME280_temperature;BME280_humidity;BME280_pressure;Samples;Min_cycle;Max_cycle;Signal;HPM_P1;HPM_P2
2023/10/22 00:00:09;;;;;;;5.77;2.20;;;16.10;94.80;;;;;;4940090;28;20447;-73
2023/10/22 00:02:39;;;;;;;2.73;1.87;;;16.10;94.90;;;;;;4952399;28;20461;-73
2023/10/22 00:05:06;;;;;;;2.80;1.90;;;16.10;94.90;;;;;;4940483;28;20798;-73
2023/10/22 00:07:32;;;;;;;3.40;1.90;;;16.10;94.90;;;;;;4939290;28;20446;-73
2023/10/22 00:09:59;;;;;;;4.87;1.90;;;16.10;94.90;;;;;;5059991;23;20507;-72
2023/10/22 00:12:25;;;;;;;4.50;1.80;;;16.10;95.00;;;;;;4958756;28;20481;-71
2023/10/22 00:14:52;;;;;;;4.63;2.27;;;16.10;95.00;;;;;;4959666;28;20434;-72
2023/10/22 00:17:19;;;;;;;3.03;1.93;;;16.10;95.00;;;;;;4958997;28;21372;-72
2023/10/22 00:19:46;;;;;;;2.40;1.60;;;16.10;94.90;;;;;;4958511;28;21107;-72
2023/10/22 00:22:14;;;;;;;3.00;1.50;;;16.10;95.00;;;;;;4967991;28;20435;-72
2023/10/22 00:24:43;;;;;;;5.20;2.33;;;16.10;95.00;;;;;;4958549;28;20581;-72
2023/10/22 00:27:13;;;;;;;2.93;1.70;;;16.10;95.00;;;;;;4959898;28;20542;-72
2023/10/22 00:29:40;;;;;;;2.43;1.80;;;16.10;95.00;;;;;;4939148;28;20469;-72
2023/10/22 00:32:08;;;;;;;3.20;1.80;;;16.10;95.00;;;;;;4958003;28;21097;-72
2023/10/22 00:34:37;;;;;;;2.90;1.80;;;16.10;95.10;;;;;;4960919;28;20417;-72
2023/10/22 00:37:06;;;;;;;2.80;1.50;;;16.10;95.10;;;;;;4945982;28;20875;-72
2023/10/22 00:39:35;;;;;;;3.13;1.90;;;16.10;95.10;;;;;;4941738;28;20815;-72
2023/10/22 00:42:02;;;;;;;3.50;1.87;;;16.10;95.10;;;;;;4929780;28;20437;-72
2023/10/22 00:44:30;;;;;;;3.77;2.03;;;16.10;95.10;;;;;;4961753;28;20449;-72
2023/10/22 00:46:58;;;;;;;3.00;1.70;;;16.10;95.10;;;;;;4961201;28;20468;-72
2023/10/22 00:49:24;;;;;;;2.90;1.70;;;16.10;95.50;;;;;;4946162;28;21275;-72
2023/10/22 00:51:53;;;;;;;2.70;1.80;;;16.10;95.10;;;;;;4965113;28;20443;-72
2023/10/22 00:54:24;;;;;;;2.60;1.80;;;16.10;95.20;;;;;;4960990;28;20422;-72
2023/10/22 00:56:51;;;;;;;2.63;1.60;;;16.20;95.30;;;;;;4964867;28;20435;-72
2023/10/22 00:59:24;;;;;;;4.27;1.83;;;16.10;95.30;;;;;;4949069;28;20461;-72
2023/10/22 01:01:51;;;;;;;2.10;1.90;;;16.10;95.30;;;;;;4934046;29;20585;-74
2023/10/22 01:04:17;;;;;;;3.23;1.80;;;16.10;95.30;;;;;;4940905;28;20435;-72
2023/10/22 01:06:47;;;;;;;2.40;1.63;;;16.10;95.30;;;;;;4961025;28;20528;-72
2023/10/22 01:09:16;;;;;;;2.60;2.17;;;16.10;95.30;;;;;;4959316;28;20518;-72
2023/10/22 01:12:04;;;;;;;1.63;1.53;;;16.10;95.40;;;;;;4951129;28;20464;-72
2023/10/22 01:14:33;;;;;;;2.70;1.60;;;16.10;95.40;;;;;;4960568;28;20433;-71
2023/10/22 01:17:01;;;;;;;2.90;1.60;;;16.10;95.40;;;;;;4962359;28;20566;-71
2023/10/22 01:19:28;;;;;;;2.60;1.73;;;16.10;95.40;;;;;;4960891;28;20541;-71
2023/10/22 01:21:57;;;;;;;1.83;1.63;;;16.10;95.40;;;;;;4945667;28;20561;-72
2023/10/22 01:24:24;;;;;;;5.90;1.90;;;16.10;95.40;;;;;;4961072;28;20441;-71
2023/10/22 01:26:53;;;;;;;3.73;1.60;;;16.10;95.40;;;;;;4929343;28;21218;-72
2023/10/22 01:29:19;;;;;;;2.03;1.83;;;16.10;95.40;;;;;;4944213;28;20470;-71
2023/10/22 01:31:46;;;;;;;2.20;1.40;;;16.10;95.40;;;;;;4961962;28;20443;-71
2023/10/22 01:34:18;;;;;;;2.03;1.70;;;16.10;95.50;;;;;;4944627;28;20432;-72
2023/10/22 01:36:47;;;;;;;4.20;1.70;;;16.10;95.50;;;;;;4944379;28;20434;-72
2023/10/22 01:39:17;;;;;;;2.27;1.90;;;16.10;95.50;;;;;;4961618;28;20448;-71
2023/10/22 01:41:46;;;;;;;2.43;1.63;;;16.10;95.50;;;;;;4959874;28;20448;-71
2023/10/22 01:44:12;;;;;;;3.30;1.70;;;16.10;95.50;;;;;;4944490;28;20539;-71
2023/10/22 01:46:42;;;;;;;1.80;1.70;;;16.10;95.60;;;;;;4944288;28;20487;-71
2023/10/22 01:49:09;;;;;;;2.43;1.73;;;16.10;95.60;;;;;;4951408;28;20802;-71
2023/10/22 01:51:36;;;;;;;2.30;1.70;;;16.10;95.60;;;;;;4958395;28;20857;-72
2023/10/22 01:54:05;;;;;;;3.23;1.60;;;16.10;95.60;;;;;;4955101;28;20452;-71
2023/10/22 01:56:31;;;;;;;4.33;1.60;;;16.10;95.60;;;;;;4960342;28;20449;-71
2023/10/22 01:58:57;;;;;;;2.13;1.40;;;16.10;95.60;;;;;;4927664;28;20464;-71
2023/10/22 02:01:25;;;;;;;2.30;1.67;;;16.10;95.60;;;;;;4960195;28;20489;-72
2023/10/22 02:03:51;;;;;;;3.73;1.70;;;16.10;95.70;;;;;;4959953;28;20431;-72
2023/10/22 02:06:20;;;;;;;2.73;1.70;;;16.10;95.70;;;;;;4959807;28;20554;-71
2023/10/22 02:08:49;;;;;;;3.90;1.53;;;16.10;95.70;;;;;;4959495;28;20456;-72
2023/10/22 02:11:19;;;;;;;2.17;1.90;;;16.10;95.70;;;;;;4944172;28;21057;-71
2023/10/22 02:13:48;;;;;;;1.90;1.60;;;16.10;95.70;;;;;;4959506;28;20417;-71
2023/10/22 02:16:14;;;;;;;1.97;1.57;;;16.10;95.70;;;;;;4959645;28;20865;-71
2023/10/22 02:18:40;;;;;;;2.10;1.53;;;16.10;95.70;;;;;;4943248;28;20469;-72
2023/10/22 02:21:08;;;;;;;1.77;1.43;;;16.10;95.80;;;;;;4943671;28;20474;-71
2023/10/22 02:23:39;;;;;;;3.57;1.43;;;16.10;95.80;;;;;;4943768;28;20934;-72
2023/10/22 02:26:11;;;;;;;2.23;1.57;;;16.10;95.80;;;;;;4960198;28;20476;-72
2023/10/22 02:28:37;;;;;;;3.60;1.70;;;16.10;95.90;;;;;;4959404;28;20475;-72
2023/10/22 02:31:07;;;;;;;2.50;1.63;;;16.00;95.80;;;;;;4959575;28;20423;-71
2023/10/22 02:33:39;;;;;;;2.40;1.90;;;16.00;95.90;;;;;;4943149;28;20446;-71
2023/10/22 02:36:10;;;;;;;3.23;1.90;;;16.00;95.80;;;;;;4943289;28;20472;-72
2023/10/22 02:38:39;;;;;;;2.13;1.40;;;16.00;95.80;;;;;;4928573;28;21355;-71
2023/10/22 02:41:07;;;;;;;1.57;1.47;;;16.10;95.90;;;;;;4950721;28;20485;-71
2023/10/22 02:43:33;;;;;;;2.10;1.50;;;16.10;95.90;;;;;;4944204;28;21085;-71
2023/10/22 02:46:00;;;;;;;1.80;1.70;;;16.10;95.90;;;;;;4960690;28;20566;-71
2023/10/22 02:48:32;;;;;;;1.60;1.37;;;16.00;95.90;;;;;;4936511;28;21247;-72
2023/10/22 02:51:03;;;;;;;2.30;2.00;;;16.00;95.90;;;;;;4943866;28;20444;-71
2023/10/22 02:53:31;;;;;;;2.07;1.60;;;16.10;96.00;;;;;;4959840;28;21232;-71
2023/10/22 02:56:01;;;;;;;2.57;1.47;;;16.00;95.90;;;;;;4943345;28;20438;-71
2023/10/22 02:58:30;;;;;;;1.77;1.67;;;16.00;96.00;;;;;;4943173;28;20448;-71
2023/10/22 03:01:06;;;;;;;1.70;1.60;;;16.00;96.00;;;;;;4959348;28;20448;-72
2023/10/22 03:03:38;;;;;;;1.47;1.37;;;16.00;96.00;;;;;;4959307;28;20442;-72
2023/10/22 03:06:12;;;;;;;1.40;1.30;;;16.00;96.00;;;;;;4943587;28;20478;-72
2023/10/22 03:08:41;;;;;;;1.50;1.40;;;16.00;96.10;;;;;;4943782;28;21091;-71
2023/10/22 03:11:17;;;;;;;1.37;1.20;;;16.00;96.10;;;;;;4944248;28;20554;-71
2023/10/22 03:13:44;;;;;;;1.60;1.40;;;16.00;96.10;;;;;;4959353;28;20425;-71
2023/10/22 03:16:12;;;;;;;1.20;1.20;;;16.00;96.20;;;;;;4959696;28;20438;-71
2023/10/22 03:18:47;;;;;;;3.40;1.60;;;16.00;96.20;;;;;;4967625;28;20452;-72
2023/10/22 03:21:19;;;;;;;1.77;1.53;;;16.00;96.20;;;;;;4958388;28;20435;-71
2023/10/22 03:23:47;;;;;;;1.50;1.40;;;16.00;96.20;;;;;;4959197;28;20771;-71
2023/10/22 03:26:16;;;;;;;3.20;1.30;;;16.00;96.30;;;;;;4950745;28;20718;-71
2023/10/22 03:28:44;;;;;;;1.57;1.30;;;16.00;96.40;;;;;;4959375;28;20454;-72
2023/10/22 03:31:15;;;;;;;1.40;1.30;;;16.00;96.40;;;;;;4960710;28;20506;-71
2023/10/22 03:33:44;;;;;;;2.23;1.50;;;16.00;96.40;;;;;;4959322;28;20486;-71
2023/10/22 03:36:11;;;;;;;3.80;1.47;;;16.00;96.50;;;;;;4961498;28;20509;-71
2023/10/22 03:38:38;;;;;;;1.43;1.33;;;16.00;96.50;;;;;;4960138;28;20837;-72
2023/10/22 03:41:09;;;;;;;2.00;1.37;;;16.00;96.50;;;;;;4961600;28;20422;-71
2023/10/22 03:43:36;;;;;;;4.83;1.77;;;16.00;96.50;;;;;;4959736;28;20431;-72
2023/10/22 03:46:03;;;;;;;1.50;1.40;;;16.00;96.60;;;;;;4943429;28;20478;-71
2023/10/22 03:48:32;;;;;;;2.07;1.10;;;16.00;96.60;;;;;;4959786;28;20436;-71
2023/10/22 03:51:00;;;;;;;2.43;1.20;;;16.00;96.60;;;;;;4959606;28;20432;-72
2023/10/22 03:53:31;;;;;;;2.93;1.50;;;16.00;96.60;;;;;;4957674;28;20518;-71
2023/10/22 03:55:57;;;;;;;1.47;1.30;;;16.00;96.70;;;;;;4959742;28;20443;-71
2023/10/22 03:58:25;;;;;;;2.30;1.43;;;16.00;96.70;;;;;;4958406;28;20431;-72
2023/10/22 04:00:54;;;;;;;1.43;1.30;;;16.00;96.70;;;;;;4958141;28;20432;-71
2023/10/22 04:03:22;;;;;;;1.83;1.23;;;16.00;96.70;;;;;;4960103;28;20419;-72
2023/10/22 04:05:57;;;;;;;1.50;1.40;;;16.00;96.70;;;;;;4942434;28;21065;-71
2023/10/22 04:08:29;;;;;;;1.73;1.40;;;16.00;96.70;;;;;;4943874;28;20439;-72
2023/10/22 04:10:55;;;;;;;2.40;1.40;;;16.00;96.70;;;;;;4947971;28;20617;-72
2023/10/22 04:13:23;;;;;;;2.10;1.50;;;16.00;96.80;;;;;;4963519;28;20435;-71
2023/10/22 04:15:49;;;;;;;1.47;1.37;;;16.00;97.10;;;;;;4962775;28;20419;-72
2023/10/22 04:18:19;;;;;;;2.30;1.27;;;16.00;96.80;;;;;;4962135;28;20422;-72
2023/10/22 04:20:46;;;;;;;1.20;1.10;;;16.00;96.80;;;;;;4963035;28;20528;-71
2023/10/22 04:23:13;;;;;;;1.93;1.60;;;16.00;96.80;;;;;;4964999;28;20488;-71
2023/10/22 04:25:44;;;;;;;1.60;1.50;;;16.00;96.90;;;;;;4963846;28;20565;-72
2023/10/22 04:28:11;;;;;;;1.50;1.40;;;16.00;96.90;;;;;;4963016;28;20808;-71
2023/10/22 04:30:38;;;;;;;1.40;1.30;;;16.00;96.90;;;;;;4962777;28;20536;-71
2023/10/22 04:33:05;;;;;;;1.40;1.30;;;16.00;96.90;;;;;;4964209;28;20486;-71
2023/10/22 04:35:32;;;;;;;4.13;1.60;;;16.00;97.00;;;;;;4962650;28;20457;-71
2023/10/22 04:38:04;;;;;;;2.00;1.83;;;16.00;97.00;;;;;;4946727;28;20434;-71
2023/10/22 04:40:34;;;;;;;1.50;1.40;;;16.00;97.00;;;;;;4964104;28;20459;-72
2023/10/22 04:43:01;;;;;;;1.40;1.30;;;16.00;97.00;;;;;;4947525;28;20449;-72
2023/10/22 04:45:28;;;;;;;1.23;1.13;;;16.00;97.10;;;;;;4947238;28;20883;-71
2023/10/22 04:47:57;;;;;;;1.60;1.50;;;16.00;97.10;;;;;;4963003;28;20430;-71
2023/10/22 04:50:25;;;;;;;1.20;1.20;;;16.00;97.20;;;;;;4962833;28;20455;-71
2023/10/22 04:52:53;;;;;;;1.73;1.60;;;16.00;97.20;;;;;;4963380;28;20428;-71
2023/10/22 04:55:22;;;;;;;1.53;1.43;;;16.00;97.20;;;;;;4945706;28;20435;-72
2023/10/22 04:57:51;;;;;;;1.50;1.40;;;16.00;97.40;;;;;;4962753;28;20601;-72
2023/10/22 05:00:20;;;;;;;1.63;1.50;;;16.00;97.30;;;;;;4963621;28;20826;-72
2023/10/22 05:02:53;;;;;;;1.57;1.47;;;16.00;97.30;;;;;;4934729;28;20446;-72
2023/10/22 05:05:23;;;;;;;1.33;1.23;;;16.00;97.40;;;;;;4946296;28;20461;-71
2023/10/22 05:07:53;;;;;;;2.20;1.40;;;16.00;97.40;;;;;;4970251;28;20438;-72
2023/10/22 05:10:20;;;;;;;2.40;1.53;;;16.00;97.50;;;;;;4971077;28;21322;-72
2023/10/22 05:12:46;;;;;;;1.43;1.33;;;16.00;97.50;;;;;;4964755;28;20467;-72
2023/10/22 05:15:13;;;;;;;1.40;1.30;;;16.00;97.50;;;;;;4964470;28;20452;-72
2023/10/22 05:17:40;;;;;;;1.50;1.40;;;16.00;97.50;;;;;;4964743;28;21215;-71
2023/10/22 05:20:07;;;;;;;1.40;1.30;;;15.90;97.50;;;;;;4973098;28;20457;-72
2023/10/22 05:22:36;;;;;;;1.90;1.33;;;15.90;97.50;;;;;;4958300;28;20454;-71
2023/10/22 05:25:11;;;;;;;1.40;1.20;;;15.90;97.50;;;;;;4957858;28;20469;-71
2023/10/22 05:27:37;;;;;;;1.20;1.10;;;15.90;97.50;;;;;;4969964;28;20476;-74
2023/10/22 05:30:07;;;;;;;1.70;1.50;;;15.90;97.40;;;;;;4963223;28;20569;-71
2023/10/22 05:32:36;;;;;;;1.37;1.10;;;15.90;97.40;;;;;;4941238;28;20487;-69
2023/10/22 05:35:03;;;;;;;3.93;1.40;;;15.90;97.30;;;;;;4962740;28;20469;-71
2023/10/22 05:37:30;;;;;;;1.57;1.47;;;15.90;97.30;;;;;;4945458;28;20466;-71
2023/10/22 05:39:58;;;;;;;1.00;1.00;;;15.90;97.20;;;;;;4962621;28;21365;-71
2023/10/22 05:42:29;;;;;;;1.47;1.30;;;15.90;97.20;;;;;;4948091;28;20999;-68
2023/10/22 05:44:55;;;;;;;1.40;1.30;;;15.90;97.20;;;;;;4959968;28;20788;-71
2023/10/22 05:47:22;;;;;;;1.57;1.47;;;15.90;97.10;;;;;;4960536;28;20481;-73
2023/10/22 05:49:48;;;;;;;1.50;1.40;;;15.90;97.00;;;;;;4962696;28;21231;-76
2023/10/22 05:52:14;;;;;;;1.30;1.20;;;15.90;97.10;;;;;;4964823;28;20430;-73
2023/10/22 05:54:40;;;;;;;1.10;1.10;;;15.90;97.00;;;;;;4961068;28;20430;-70
2023/10/22 05:57:06;;;;;;;1.00;1.00;;;15.90;97.00;;;;;;4962750;28;20972;-71
2023/10/22 05:59:33;;;;;;;1.50;1.40;;;15.90;97.10;;;;;;4960726;28;20440;-70
2023/10/22 06:02:02;;;;;;;1.60;1.50;;;15.90;97.00;;;;;;4943560;28;20183;-68
2023/10/22 06:04:30;;;;;;;3.47;1.30;;;15.90;97.00;;;;;;4959645;28;20426;-70
2023/10/22 06:06:57;;;;;;;1.30;1.20;;;15.90;97.00;;;;;;4964981;28;20531;-72
2023/10/22 06:09:23;;;;;;;1.60;1.50;;;15.90;97.00;;;;;;4960518;28;20443;-70
2023/10/22 06:11:54;;;;;;;1.43;1.33;;;15.90;97.00;;;;;;4960603;28;20434;-72
2023/10/22 06:14:20;;;;;;;1.50;1.40;;;15.90;97.00;;;;;;4945157;28;21065;-67
2023/10/22 06:16:48;;;;;;;1.40;1.30;;;15.90;97.00;;;;;;4961462;28;20443;-69
2023/10/22 06:19:14;;;;;;;1.33;1.23;;;15.90;96.90;;;;;;4962668;28;21429;-68
2023/10/22 06:21:43;;;;;;;1.37;1.27;;;15.90;96.90;;;;;;4958783;28;21040;-70
2023/10/22 06:24:09;;;;;;;1.40;1.30;;;15.90;96.90;;;;;;4958399;28;20443;-71
2023/10/22 06:26:35;;;;;;;1.50;1.40;;;15.90;96.90;;;;;;4956468;28;20555;-71
2023/10/22 06:29:01;;;;;;;1.50;1.40;;;15.90;96.90;;;;;;4940553;28;20559;-71
2023/10/22 06:31:27;;;;;;;2.20;1.70;;;15.90;96.80;;;;;;4957492;28;20477;-70
2023/10/22 06:33:53;;;;;;;1.67;1.57;;;15.90;96.70;;;;;;4950808;28;20448;-71
2023/10/22 06:36:22;;;;;;;1.67;1.47;;;15.90;96.70;;;;;;4956638;28;20445;-71
2023/10/22 06:38:53;;;;;;;2.50;1.60;;;15.90;96.70;;;;;;4956649;28;20218;-71
2023/10/22 06:41:26;;;;;;;1.53;1.43;;;15.90;96.60;;;;;;4949569;28;20441;-71
2023/10/22 06:43:53;;;;;;;1.50;1.40;;;15.90;96.70;;;;;;4949269;28;20430;-71
2023/10/22 06:46:22;;;;;;;1.40;1.30;;;15.90;96.60;;;;;;4956973;28;20481;-71
2023/10/22 06:48:50;;;;;;;1.83;1.30;;;15.90;96.60;;;;;;4956527;28;21014;-71
2023/10/22 06:51:16;;;;;;;1.30;1.20;;;15.90;96.60;;;;;;4933322;29;20459;-71
2023/10/22 06:53:51;;;;;;;1.40;1.30;;;15.90;96.60;;;;;;4956212;28;21074;-71
2023/10/22 06:56:17;;;;;;;2.37;1.80;;;15.80;96.50;;;;;;4957921;28;20826;-70
2023/10/22 06:58:45;;;;;;;1.40;1.30;;;15.90;96.60;;;;;;4939518;28;20579;-70
2023/10/22 07:01:13;;;;;;;1.50;1.40;;;15.90;96.60;;;;;;4958044;28;20438;-70
2023/10/22 07:03:46;;;;;;;4.23;1.30;;;15.90;96.60;;;;;;4960339;28;20439;-70
2023/10/22 07:06:13;;;;;;;1.20;1.10;;;15.90;96.50;;;;;;4960726;28;20974;-68
2023/10/22 07:08:43;;;;;;;1.77;1.33;;;15.80;96.50;;;;;;4958174;28;20487;-67
2023/10/22 07:11:09;;;;;;;2.30;1.30;;;15.80;96.50;;;;;;4959580;28;20453;-67
2023/10/22 07:13:35;;;;;;;1.40;1.30;;;15.90;96.60;;;;;;4941620;28;20440;-68
2023/10/22 07:16:01;;;;;;;1.20;1.17;;;15.80;96.50;;;;;;4942590;28;20523;-69
2023/10/22 07:18:28;;;;;;;1.80;1.70;;;15.80;96.50;;;;;;4954332;28;20490;-68
2023/10/22 07:20:54;;;;;;;1.10;1.10;;;15.90;96.50;;;;;;4956225;28;20477;-68
2023/10/22 07:23:22;;;;;;;1.53;1.37;;;15.80;96.50;;;;;;4956106;28;21286;-68
2023/10/22 07:25:50;;;;;;;1.50;1.40;;;15.90;96.50;;;;;;4955698;28;20223;-68
2023/10/22 07:28:18;;;;;;;1.40;1.30;;;15.80;96.50;;;;;;4956438;28;20435;-68
2023/10/22 07:30:48;;;;;;;1.50;1.40;;;15.80;96.50;;;;;;4956668;28;21247;-68
2023/10/22 07:33:18;;;;;;;1.50;1.40;;;15.80;96.50;;;;;;4957278;28;20427;-68
2023/10/22 07:35:58;;;;;;;1.30;1.20;;;15.80;96.50;;;;;;4958104;28;21132;-68
2023/10/22 07:38:31;;;;;;;1.60;1.50;;;15.80;96.50;;;;;;4952978;28;20422;-68
2023/10/22 07:41:00;;;;;;;1.43;1.33;;;15.80;96.90;;;;;;4951626;28;20508;-68
2023/10/22 07:43:28;;;;;;;1.40;1.30;;;15.80;96.50;;;;;;4959072;28;20441;-69
2023/10/22 07:45:59;;;;;;;1.40;1.30;;;15.80;96.50;;;;;;4952750;28;20547;-68
2023/10/22 07:48:30;;;;;;;1.90;1.63;;;15.80;96.50;;;;;;4961599;28;20447;-68
2023/10/22 07:51:18;;;;;;;1.70;1.60;;;15.80;96.50;;;;;;4952609;28;20445;-69
2023/10/22 07:53:45;;;;;;;1.50;1.40;;;15.80;96.50;;;;;;4943473;28;20482;-68
2023/10/22 07:56:11;;;;;;;1.60;1.50;;;15.80;96.50;;;;;;4943782;28;20991;-68
2023/10/22 07:58:38;;;;;;;1.50;1.40;;;15.80;96.50;;;;;;4943905;28;20446;-68
2023/10/22 08:01:09;;;;;;;1.43;1.33;;;15.80;96.40;;;;;;4943604;28;21054;-67
2023/10/22 08:03:35;;;;;;;3.37;1.60;;;15.80;96.40;;;;;;4959160;28;20505;-68
2023/10/22 08:06:04;;;;;;;1.53;1.43;;;15.80;96.40;;;;;;4959232;28;20481;-68
2023/10/22 08:08:30;;;;;;;3.30;1.50;;;15.80;96.40;;;;;;4959846;28;20934;-68
2023/10/22 08:10:57;;;;;;;2.23;1.77;;;15.80;96.40;;;;;;4960622;28;20755;-68
2023/10/22 08:13:26;;;;;;;1.50;1.40;;;15.80;96.40;;;;;;4943382;28;20476;-68
2023/10/22 08:15:53;;;;;;;2.90;1.60;;;15.80;96.40;;;;;;4959155;28;20916;-68
2023/10/22 08:18:20;;;;;;;1.70;1.60;;;15.80;96.40;;;;;;4959131;28;20542;-68
2023/10/22 08:20:46;;;;;;;1.50;1.40;;;15.80;96.40;;;;;;4961698;28;20735;-68
2023/10/22 08:23:12;;;;;;;1.50;1.40;;;15.80;96.40;;;;;;4959622;28;20427;-68
2023/10/22 08:25:48;;;;;;;1.40;1.30;;;15.80;96.40;;;;;;4959107;28;20431;-68
2023/10/22 08:28:14;;;;;;;2.30;1.50;;;15.80;96.50;;;;;;4960402;28;20446;-68
2023/10/22 08:30:44;;;;;;;1.83;1.53;;;15.80;96.50;;;;;;4943123;28;20464;-67
2023/10/22 08:33:13;;;;;;;1.60;1.50;;;15.80;96.50;;;;;;4962005;28;20451;-68
2023/10/22 08:35:42;;;;;;;1.40;1.30;;;15.80;96.50;;;;;;4961213;28;20458;-67
2023/10/22 08:38:09;;;;;;;2.40;1.40;;;15.80;96.50;;;;;;4969468;23;20498;-69
2023/10/22 08:40:41;;;;;;;4.33;1.53;;;15.80;96.50;;;;;;4939142;28;20442;-69
2023/10/22 08:43:18;;;;;;;1.70;1.60;;;15.80;96.80;;;;;;4924348;29;20402;-71
2023/10/22 08:45:49;;;;;;;1.47;1.37;;;15.80;96.50;;;;;;4952330;28;20460;-70
2023/10/22 08:48:24;;;;;;;1.40;1.30;;;15.80;96.50;;;;;;4928199;29;20411;-70
2023/10/22 08:50:52;;;;;;;3.43;1.47;;;15.80;96.50;;;;;;4944877;29;20432;-70
2023/10/22 08:53:18;;;;;;;1.73;1.63;;;15.80;96.60;;;;;;4945364;28;20495;-70
2023/10/22 08:55:46;;;;;;;1.70;1.60;;;15.80;96.60;;;;;;4944455;29;20856;-70
2023/10/22 08:58:15;;;;;;;1.70;1.60;;;15.80;96.60;;;;;;4946604;28;20408;-70
2023/10/22 09:00:47;;;;;;;1.63;1.53;;;15.80;96.60;;;;;;4946455;28;20698;-70
2023/10/22 09:03:21;;;;;;;1.63;1.53;;;15.80;96.70;;;;;;4947658;28;20799;-70
2023/10/22 09:05:48;;;;;;;1.80;1.70;;;15.80;96.70;;;;;;4929678;29;20451;-70
2023/10/22 09:08:15;;;;;;;2.23;1.57;;;15.80;96.70;;;;;;4959970;28;20510;-70
2023/10/22 09:10:44;;;;;;;2.40;1.70;;;15.80;96.70;;;;;;4954926;28;20451;-70
2023/10/22 09:13:15;;;;;;;1.63;1.53;;;15.80;96.70;;;;;;4946099;29;20438;-70
2023/10/22 09:15:48;;;;;;;1.93;1.50;;;15.80;96.80;;;;;;4944921;29;20450;-70
2023/10/22 09:18:15;;;;;;;1.53;1.40;;;15.80;96.80;;;;;;4928914;29;20436;-70
2023/10/22 09:20:48;;;;;;;3.50;1.50;;;15.80;96.80;;;;;;4945602;29;20487;-70
2023/10/22 09:23:18;;;;;;;1.73;1.63;;;15.80;96.80;;;;;;4946217;28;20480;-70
2023/10/22 09:26:00;;;;;;;2.47;1.60;;;15.80;96.80;;;;;;4944761;29;20479;-70
2023/10/22 09:28:31;;;;;;;2.40;1.80;;;15.80;96.80;;;;;;4944476;29;20478;-70
2023/10/22 09:31:02;;;;;;;1.80;1.70;;;15.80;96.90;;;;;;4929581;29;20433;-70
2023/10/22 09:33:38;;;;;;;1.60;1.50;;;15.80;96.90;;;;;;4945588;29;20874;-70
2023/10/22 09:36:08;;;;;;;1.87;1.27;;;15.80;96.90;;;;;;4945516;29;20453;-70
2023/10/22 09:38:46;;;;;;;3.83;1.60;;;15.80;97.00;;;;;;4944679;29;21032;-70
2023/10/22 09:41:27;;;;;;;1.47;1.37;;;15.80;97.00;;;;;;4929688;29;20447;-70
2023/10/22 09:43:54;;;;;;;2.27;1.67;;;15.80;97.00;;;;;;4945427;29;20417;-70
2023/10/22 09:46:23;;;;;;;1.60;1.50;;;15.80;97.00;;;;;;4945051;29;20475;-70
2023/10/22 09:48:50;;;;;;;1.80;1.70;;;15.90;97.10;;;;;;4929102;29;20464;-70
2023/10/22 09:51:17;;;;;;;1.83;1.60;;;15.80;97.10;;;;;;4945761;29;20436;-70
2023/10/22 09:53:56;;;;;;;1.60;1.50;;;15.90;97.20;;;;;;4947472;28;20940;-71
2023/10/22 09:56:26;;;;;;;4.07;1.90;;;15.80;97.10;;;;;;4930338;29;20468;-70
2023/10/22 09:59:06;;;;;;;2.67;1.53;;;15.90;97.20;;;;;;4930317;29;20996;-70
2023/10/22 10:01:38;;;;;;;1.77;1.67;;;15.90;97.20;;;;;;4946918;28;21008;-70
2023/10/22 10:04:05;;;;;;;2.10;1.63;;;15.90;97.20;;;;;;4945025;29;20510;-70
2023/10/22 10:06:33;;;;;;;2.33;2.03;;;15.90;97.30;;;;;;4943847;28;20544;-71
2023/10/22 10:09:02;;;;;;;1.70;1.60;;;15.90;97.20;;;;;;4956246;28;20452;-70
2023/10/22 10:11:34;;;;;;;1.80;1.70;;;15.90;97.30;;;;;;4965127;28;20421;-70
2023/10/22 10:14:30;;;;;;;1.80;1.70;;;15.90;97.20;;;;;;4965211;28;20516;-70
2023/10/22 10:17:01;;;;;;;1.67;1.57;;;15.90;97.30;;;;;;4960536;28;20457;-70
2023/10/22 10:19:29;;;;;;;1.70;1.60;;;15.90;97.20;;;;;;4946267;28;20446;-70
2023/10/22 10:21:56;;;;;;;1.40;1.30;;;15.90;97.20;;;;;;4944605;29;20439;-70
2023/10/22 10:24:28;;;;;;;1.73;1.60;;;15.90;97.10;;;;;;4946096;28;20486;-70
2023/10/22 10:26:57;;;;;;;2.80;1.50;;;15.90;97.20;;;;;;4945198;29;20481;-70
2023/10/22 10:29:24;;;;;;;1.93;1.40;;;16.00;97.30;;;;;;4929094;29;20452;-70
2023/10/22 10:31:53;;;;;;;1.80;1.47;;;16.00;97.30;;;;;;4956503;28;21281;-70
2023/10/22 10:34:43;;;;;;;1.47;1.37;;;16.00;97.30;;;;;;4963340;28;20415;-70
2023/10/22 10:37:17;;;;;;;2.30;1.37;;;16.00;97.30;;;;;;4924222;29;20447;-70
2023/10/22 10:39:47;;;;;;;3.07;1.60;;;16.00;97.30;;;;;;4933941;29;20453;-70
2023/10/22 10:42:38;;;;;;;2.10;1.90;;;16.00;97.30;;;;;;4949101;28;20430;-70
2023/10/22 10:45:06;;;;;;;1.60;1.50;;;16.00;97.40;;;;;;4924244;29;20893;-70
2023/10/22 10:47:36;;;;;;;1.70;1.60;;;16.00;97.40;;;;;;4956152;28;20475;-70
2023/10/22 10:50:14;;;;;;;2.00;1.77;;;16.00;97.70;;;;;;4941196;29;20455;-70
2023/10/22 10:52:44;;;;;;;1.50;1.40;;;16.00;97.40;;;;;;4925024;29;20507;-70
2023/10/22 10:55:20;;;;;;;1.83;1.60;;;16.00;97.40;;;;;;4955848;28;20444;-70
2023/10/22 10:57:51;;;;;;;3.40;1.47;;;16.00;97.40;;;;;;4941832;28;20439;-66
2023/10/22 11:00:21;;;;;;;1.40;1.30;;;16.00;97.40;;;;;;4924005;29;20468;-72
2023/10/22 11:02:52;;;;;;;1.50;1.40;;;16.10;97.50;;;;;;4938651;28;20464;-75
2023/10/22 11:05:29;;;;;;;1.50;1.40;;;16.10;97.50;;;;;;4922849;29;20455;-74
2023/10/22 11:07:55;;;;;;;1.80;1.30;;;16.10;97.50;;;;;;4938270;28;20452;-78
2023/10/22 11:10:24;;;;;;;1.90;1.80;;;16.10;97.50;;;;;;4932200;28;20473;-75
2023/10/22 11:12:51;;;;;;;1.63;1.53;;;16.10;97.50;;;;;;4930778;28;20425;-77
2023/10/22 11:15:17;;;;;;;1.60;1.50;;;16.10;97.40;;;;;;4946979;28;20447;-77
2023/10/22 11:17:43;;;;;;;2.50;1.90;;;16.10;97.40;;;;;;4933830;28;20416;-76
2023/10/22 11:20:10;;;;;;;2.10;1.90;;;16.10;97.40;;;;;;4942205;28;20452;-78
2023/10/22 11:22:36;;;;;;;1.80;1.70;;;16.10;97.40;;;;;;4922415;28;20498;-76
2023/10/22 11:25:13;;;;;;;3.23;1.50;;;16.10;97.50;;;;;;4932304;29;20465;-74
2023/10/22 11:27:40;;;;;;;1.50;1.40;;;16.10;97.50;;;;;;4947903;28;20491;-73
2023/10/22 11:30:09;;;;;;;1.70;1.60;;;16.20;97.50;;;;;;4939598;28;20551;-73
2023/10/22 11:32:47;;;;;;;1.70;1.60;;;16.20;97.50;;;;;;4941945;28;20433;-72
2023/10/22 11:35:15;;;;;;;1.80;1.70;;;16.20;97.50;;;;;;4939089;28;20479;-72
2023/10/22 11:37:45;;;;;;;2.40;1.80;;;16.20;97.50;;;;;;4938891;29;21071;-72
2023/10/22 11:40:28;;;;;;;1.80;1.70;;;16.20;97.40;;;;;;4940445;28;20474;-72
2023/10/22 11:43:04;;;;;;;2.03;1.40;;;16.20;97.40;;;;;;4939634;29;20825;-72
2023/10/22 11:45:34;;;;;;;2.63;1.60;;;16.20;97.40;;;;;;4939243;28;20972;-70
2023/10/22 11:48:10;;;;;;;1.80;1.70;;;16.20;97.30;;;;;;4934321;28;20499;-70
2023/10/22 11:50:47;;;;;;;1.90;1.70;;;16.20;97.30;;;;;;4932746;28;20455;-70
2023/10/22 11:53:17;;;;;;;1.70;1.60;;;16.20;97.20;;;;;;4916270;29;20521;-71
2023/10/22 11:55:47;;;;;;;1.67;1.57;;;16.20;97.20;;;;;;4936431;28;20452;-70
2023/10/22 11:58:21;;;;;;;1.70;1.60;;;16.20;97.20;;;;;;4913700;29;21367;-71
2023/10/22 12:00:56;;;;;;;1.80;1.60;;;16.30;97.20;;;;;;4945228;28;21028;-70
2023/10/22 12:03:33;;;;;;;1.87;1.70;;;16.30;97.20;;;;;;4941412;28;20444;-70
2023/10/22 12:06:01;;;;;;;1.83;1.73;;;16.30;97.10;;;;;;4942474;28;20920;-71
2023/10/22 12:08:29;;;;;;;1.60;1.50;;;16.30;97.10;;;;;;4934945;28;20448;-73
2023/10/22 12:10:55;;;;;;;1.60;1.37;;;16.30;97.10;;;;;;4920969;29;20423;-72
2023/10/22 12:13:30;;;;;;;3.43;1.50;;;16.30;97.00;;;;;;4935294;28;20450;-74
2023/10/22 12:15:56;;;;;;;1.50;1.40;;;16.40;97.10;;;;;;4922959;29;20464;-74
2023/10/22 12:18:23;;;;;;;1.80;1.70;;;16.40;97.00;;;;;;4953538;28;21005;-71
2023/10/22 12:21:01;;;;;;;4.43;1.80;;;16.40;97.00;;;;;;4947651;28;20429;-74
2023/10/22 12:23:27;;;;;;;1.57;1.47;;;16.40;97.00;;;;;;4934161;28;20468;-74
2023/10/22 12:25:55;;;;;;;1.57;1.47;;;16.40;96.90;;;;;;4931841;28;20472;-78
2023/10/22 12:28:25;;;;;;;2.83;1.70;;;16.40;96.90;;;;;;4922649;29;21206;-75
2023/10/22 12:30:51;;;;;;;2.90;1.60;;;16.40;96.90;;;;;;4920159;28;20456;-73
2023/10/22 12:33:17;;;;;;;1.70;1.60;;;16.40;96.90;;;;;;4942438;28;21032;-72
2023/10/22 12:35:48;;;;;;;2.00;1.60;;;16.40;97.00;;;;;;4918345;29;20468;-72
2023/10/22 12:38:14;;;;;;;1.80;1.70;;;16.50;97.00;;;;;;4943265;28;20898;-73
2023/10/22 12:40:40;;;;;;;1.60;1.50;;;16.50;96.90;;;;;;4944058;28;20444;-72
2023/10/22 12:43:09;;;;;;;2.90;1.40;;;16.50;97.00;;;;;;4948853;28;20961;-76
2023/10/22 12:45:39;;;;;;;1.73;1.63;;;16.50;96.90;;;;;;4910856;28;20420;-72
2023/10/22 12:48:08;;;;;;;1.60;1.50;;;16.50;96.90;;;;;;4941057;28;21281;-72
2023/10/22 12:50:59;;;;;;;1.40;1.30;;;16.50;96.90;;;;;;4911174;29;20513;-72
2023/10/22 12:53:27;;;;;;;1.70;1.60;;;16.50;96.90;;;;;;4916588;29;21187;-72
2023/10/22 12:55:57;;;;;;;3.50;1.60;;;16.50;96.90;;;;;;4924290;28;20439;-71
2023/10/22 12:58:23;;;;;;;1.57;1.47;;;16.50;96.90;;;;;;4933974;28;20519;-72